Time;durP1;ratioP1;P1;durP2;ratioP2;P2;SDS_P1;SDS_P2;PMS_P1;PMS_P2;Temp;Humidity;BMP_temperature;BMP_pressure;BME280_temperature;BME280_humidity;BME280_pressure;Samples;Min_cycle;Max_cycle;Signal;HPM_P1;HPM_P2
2022/01/17 00:00:55;;;;;;;109.72;33.30;;;;;;;5.08;100.00;103107.56;5062673;28;20047;-80
2022/01/17 00:03:24;;;;;;;104.63;32.90;;;;;;;5.08;100.00;103115.28;5050905;28;20351;-80
2022/01/17 00:05:51;;;;;;;112.22;32.67;;;;;;;5.10;100.00;103120.50;5073913;28;20050;-80
2022/01/17 00:08:17;;;;;;;103.38;31.48;;;;;;;5.12;100.00;103129.97;5082990;28;20036;-81
2022/01/17 00:10:42;;;;;;;111.45;31.52;;;;;;;5.10;100.00;103126.50;5073654;28;20023;-80
2022/01/17 00:13:10;;;;;;;110.43;32.80;;;;;;;5.15;100.00;103129.22;5070686;28;20107;-80
2022/01/17 00:15:47;;;;;;;112.55;33.03;;;;;;;5.13;100.00;103113.75;5059639;28;20025;-80
2022/01/17 00:20:37;;;;;;;106.00;30.88;;;;;;;5.16;100.00;103128.41;5071460;28;20181;-80
2022/01/17 00:23:03;;;;;;;93.03;28.15;;;;;;;5.11;100.00;103124.81;5082089;28;20027;-80
2022/01/17 00:25:28;;;;;;;87.25;27.77;;;;;;;5.14;100.00;103127.47;5047902;28;20039;-80
2022/01/17 00:27:53;;;;;;;88.83;27.87;;;;;;;5.13;100.00;103120.56;5062237;28;20455;-80
2022/01/17 00:30:19;;;;;;;89.20;25.77;;;;;;;5.13;100.00;103118.00;5069996;28;20289;-80
2022/01/17 00:32:45;;;;;;;90.18;27.13;;;;;;;5.13;100.00;103118.00;5069472;28;20312;-80
2022/01/17 00:35:10;;;;;;;81.30;26.38;;;;;;;5.12;100.00;103118.81;5069863;28;20025;-80
2022/01/17 00:37:36;;;;;;;88.70;27.00;;;;;;;5.11;100.00;103123.13;5069878;28;20027;-80
2022/01/17 00:40:03;;;;;;;87.90;26.83;;;;;;;5.08;100.00;103114.41;5069609;28;20025;-80
2022/01/17 00:42:28;;;;;;;87.47;26.08;;;;;;;5.10;100.00;103120.50;5069492;28;20110;-79
2022/01/17 00:44:53;;;;;;;87.00;26.40;;;;;;;5.11;100.00;103127.38;5069410;28;20462;-80
2022/01/17 00:47:19;;;;;;;89.03;26.27;;;;;;;5.10;100.00;103120.50;5069297;28;20399;-80
2022/01/17 00:49:44;;;;;;;89.95;26.85;;;;;;;5.11;100.00;103122.25;5069488;28;20017;-80
2022/01/17 00:52:09;;;;;;;84.72;25.02;;;;;;;5.11;100.00;103120.53;5068673;28;20081;-80
2022/01/17 00:54:35;;;;;;;90.93;25.73;;;;;;;5.12;100.00;103126.53;5070006;28;20024;-80
2022/01/17 00:57:00;;;;;;;91.30;25.08;;;;;;;5.13;100.00;103126.59;5069107;28;20103;-79
2022/01/17 00:59:26;;;;;;;87.65;25.98;;;;;;;5.14;100.00;103132.63;5069367;28;20074;-80
2022/01/17 01:01:51;;;;;;;84.53;24.13;;;;;;;5.15;100.00;103126.66;5069073;28;20113;-79
2022/01/17 01:04:17;;;;;;;84.88;24.35;;;;;;;5.14;100.00;103130.91;5069518;28;20582;-80
2022/01/17 01:06:42;;;;;;;83.78;24.73;;;;;;;5.16;100.00;103136.13;5069518;28;21196;-80
2022/01/17 01:09:08;;;;;;;80.97;24.88;;;;;;;5.12;100.00;103129.97;5068931;28;20040;-80
2022/01/17 01:11:33;;;;;;;76.80;24.30;;;;;;;5.14;100.00;103146.34;5068690;28;20471;-79
2022/01/17 01:13:58;;;;;;;79.40;25.40;;;;;;;5.09;100.00;103142.75;5068977;28;20032;-80
2022/01/17 01:16:32;;;;;;;87.55;24.60;;;;;;;5.14;100.00;103142.91;5070918;28;20021;-80
2022/01/17 01:29:28;;;;;;;62.25;19.42;;;;;;;5.09;100.00;103137.59;5069348;28;20097;-83
2022/01/17 01:31:58;;;;;;;65.85;21.40;;;;;;;5.08;100.00;103129.81;5065584;28;20051;-83
2022/01/17 01:34:35;;;;;;;68.07;21.50;;;;;;;5.10;100.00;103135.91;5070325;28;20134;-83
2022/01/17 01:37:03;;;;;;;65.00;21.23;;;;;;;5.07;100.00;103135.78;5077072;28;20035;-83
2022/01/17 01:39:28;;;;;;;66.68;21.42;;;;;;;5.06;100.00;103136.59;5072129;28;20032;-83
2022/01/17 01:41:54;;;;;;;69.45;20.23;;;;;;;5.09;100.00;103152.16;5068992;28;20052;-83
2022/01/17 01:44:22;;;;;;;59.67;19.90;;;;;;;5.08;100.00;103158.97;5068879;28;20027;-83
2022/01/17 01:46:50;;;;;;;68.75;20.50;;;;;;;5.06;100.00;103160.63;5069228;28;20028;-83
2022/01/17 01:49:17;;;;;;;56.00;19.38;;;;;;;5.06;100.00;103154.59;5068714;28;20028;-83
2022/01/17 01:51:44;;;;;;;64.72;18.85;;;;;;;5.07;100.00;103156.34;5076841;28;20054;-83
2022/01/17 01:54:10;;;;;;;61.33;20.10;;;;;;;5.07;100.00;103151.22;5073488;28;20029;-83
2022/01/17 01:56:42;;;;;;;59.13;19.95;;;;;;;5.07;100.00;103135.78;5068648;28;20086;-83
2022/01/17 01:59:07;;;;;;;68.03;21.83;;;;;;;5.05;100.00;103148.56;5068989;28;20025;-80
2022/01/17 02:01:33;;;;;;;65.47;21.77;;;;;;;4.98;100.00;103144.03;5068534;28;20035;-80
2022/01/17 02:03:58;;;;;;;64.00;21.02;;;;;;;4.92;100.00;103164.38;5069402;28;20070;-80
2022/01/17 02:06:24;;;;;;;62.05;19.67;;;;;;;4.84;100.00;103154.66;5072380;28;20041;-80
2022/01/17 02:08:49;;;;;;;60.33;19.88;;;;;;;4.71;100.00;103154.19;5072726;28;20032;-80
2022/01/17 02:11:15;;;;;;;67.68;20.88;;;;;;;4.63;100.00;103162.44;5070946;28;20028;-80
2022/01/17 02:13:41;;;;;;;60.45;21.00;;;;;;;4.51;100.00;103157.69;5073314;28;20112;-81
2022/01/17 02:16:11;;;;;;;61.47;19.67;;;;;;;4.44;100.00;103162.53;5055800;28;20177;-81
2022/01/17 02:18:37;;;;;;;72.50;19.98;;;;;;;4.33;100.00;103160.44;5079627;28;20042;-80
2022/01/17 02:21:20;;;;;;;66.97;20.27;;;;;;;4.25;100.00;103155.81;5073802;28;20028;-80
2022/01/17 02:23:51;;;;;;;66.53;19.67;;;;;;;4.18;100.00;103156.38;5072180;28;20036;-80
2022/01/17 02:26:18;;;;;;;65.45;20.25;;;;;;;4.09;100.00;103148.34;5072076;28;20043;-80
2022/01/17 02:28:49;;;;;;;62.10;17.95;;;;;;;4.01;100.00;103154.84;5071955;28;20586;-80
2022/01/17 02:31:15;;;;;;;62.53;18.80;;;;;;;3.94;100.00;103151.16;5078677;28;20047;-80
2022/01/17 02:33:41;;;;;;;60.22;18.45;;;;;;;3.86;100.00;103150.84;5081240;28;20028;-80
2022/01/17 02:36:06;;;;;;;55.83;17.77;;;;;;;3.80;100.00;103162.53;5072860;28;20028;-80
2022/01/17 02:38:31;;;;;;;57.00;17.95;;;;;;;3.71;100.00;103157.91;5072115;28;20028;-80
2022/01/17 02:40:57;;;;;;;55.83;16.90;;;;;;;3.66;100.00;103155.97;5070042;28;20036;-80
2022/01/17 02:43:24;;;;;;;55.00;18.00;;;;;;;3.63;100.00;103163.50;5042959;28;20041;-80
2022/01/17 02:48:27;;;;;;;58.13;17.23;;;;;;;3.55;100.00;103161.50;5059536;28;20033;-80
2022/01/17 02:50:53;;;;;;;52.75;17.05;;;;;;;3.52;100.00;103152.81;5052222;28;20020;-80
2022/01/17 02:53:19;;;;;;;56.15;17.20;;;;;;;3.45;100.00;103159.38;5033915;28;20029;-80
2022/01/17 02:55:50;;;;;;;56.95;18.65;;;;;;;3.44;100.00;103169.56;5051093;28;20083;-80
2022/01/17 02:58:18;;;;;;;51.78;17.65;;;;;;;3.41;100.00;103170.28;5051641;28;20051;-80
2022/01/17 03:00:43;;;;;;;59.35;18.35;;;;;;;3.41;100.00;103164.31;5051572;28;20146;-80
2022/01/17 03:03:16;;;;;;;60.53;18.50;;;;;;;3.43;100.00;103154.97;5058337;28;20104;-80
2022/01/17 03:05:42;;;;;;;59.42;18.50;;;;;;;3.52;100.00;103165.63;5050751;28;20028;-80
2022/01/17 03:08:08;;;;;;;49.53;16.80;;;;;;;3.52;100.00;103165.63;5051438;28;20023;-80
2022/01/17 03:10:39;;;;;;;60.15;17.70;;;;;;;3.50;100.00;103162.13;5051392;28;20044;-80
2022/01/17 03:13:16;;;;;;;56.33;17.23;;;;;;;3.50;100.00;103160.44;5051063;28;20036;-81
2022/01/17 03:15:42;;;;;;;55.53;17.40;;;;;;;3.44;100.00;103151.63;5035809;28;20438;-80
2022/01/17 03:18:08;;;;;;;50.50;15.50;;;;;;;3.35;100.00;103139.28;5053801;28;20412;-78
2022/01/17 03:20:37;;;;;;;53.28;15.98;;;;;;;3.30;100.00;103142.47;5019857;28;20023;-81
2022/01/17 03:23:04;;;;;;;55.13;15.75;;;;;;;3.29;100.00;103150.94;5046110;28;20384;-78
2022/01/17 03:25:29;;;;;;;52.40;15.05;;;;;;;3.21;100.00;103152.34;5050994;28;20037;-78
2022/01/17 03:27:55;;;;;;;53.25;16.05;;;;;;;3.22;100.00;103160.06;5028583;28;20040;-78
2022/01/17 03:30:22;;;;;;;47.70;15.10;;;;;;;3.16;100.00;103155.56;5055629;28;20397;-79
2022/01/17 03:32:48;;;;;;;52.92;14.90;;;;;;;3.10;100.00;103160.41;5050984;28;20013;-79
2022/01/17 03:35:13;;;;;;;49.38;15.38;;;;;;;3.09;100.00;103160.34;5053717;28;20427;-78
2022/01/17 03:37:39;;;;;;;52.65;15.35;;;;;;;3.10;100.00;103169.78;5052202;28;20155;-79
2022/01/17 03:40:05;;;;;;;46.88;14.27;;;;;;;3.09;100.00;103163.78;5050836;28;20025;-78
2022/01/17 03:42:30;;;;;;;51.75;14.10;;;;;;;3.08;100.00;103161.16;5065461;28;20056;-79
2022/01/17 03:44:56;;;;;;;53.22;14.27;;;;;;;3.01;100.00;103154.88;5052913;28;20138;-79
2022/01/17 03:47:21;;;;;;;41.53;12.77;;;;;;;2.93;100.00;103156.25;5070662;28;20070;-79
2022/01/17 03:49:46;;;;;;;43.42;14.02;;;;;;;2.93;100.00;103161.38;5070536;28;20025;-79
2022/01/17 03:52:12;;;;;;;46.70;13.45;;;;;;;2.91;100.00;103155.28;5070343;28;20390;-79
2022/01/17 03:54:37;;;;;;;46.97;13.60;;;;;;;2.92;100.00;103156.16;5070311;28;20103;-79
2022/01/17 03:57:03;;;;;;;53.78;14.23;;;;;;;2.91;100.00;103152.72;5073688;28;20033;-78
2022/01/17 03:59:28;;;;;;;46.53;13.82;;;;;;;2.91;100.00;103156.97;5070166;28;20081;-79
2022/01/17 04:01:54;;;;;;;44.65;12.73;;;;;;;2.89;100.00;103158.59;5052260;28;20024;-79
2022/01/17 04:04:20;;;;;;;43.15;12.48;;;;;;;2.84;100.00;103167.75;5069702;28;20048;-78
2022/01/17 04:06:45;;;;;;;44.05;13.45;;;;;;;2.82;100.00;103167.66;5052364;28;20457;-79
2022/01/17 04:09:11;;;;;;;42.75;12.23;;;;;;;2.83;100.00;103173.69;5070641;28;20515;-79
2022/01/17 04:11:37;;;;;;;42.65;12.00;;;;;;;2.85;100.00;103157.59;5068330;28;20032;-78
2022/01/17 04:14:06;;;;;;;49.03;11.88;;;;;;;2.87;100.00;103163.63;5070168;28;20025;-79
2022/01/17 04:16:32;;;;;;;39.72;11.73;;;;;;;2.83;100.00;103166.88;5057078;28;20036;-78
2022/01/17 04:18:57;;;;;;;44.03;11.15;;;;;;;2.75;100.00;103168.19;5053242;28;20081;-79
2022/01/17 04:21:22;;;;;;;40.08;11.95;;;;;;;2.74;100.00;103171.56;5072858;28;20175;-79
2022/01/17 04:23:48;;;;;;;40.22;10.90;;;;;;;2.69;100.00;103176.47;5057084;28;20035;-78
2022/01/17 04:26:14;;;;;;;43.50;11.40;;;;;;;2.65;100.00;103178.84;5051855;28;20047;-78
2022/01/17 04:28:40;;;;;;;36.30;10.90;;;;;;;2.62;100.00;103177.00;5069848;28;20059;-79
2022/01/17 04:31:05;;;;;;;39.70;11.05;;;;;;;2.58;100.00;103175.13;5070598;28;20052;-78
2022/01/17 04:33:30;;;;;;;37.72;10.43;;;;;;;2.57;100.00;103170.81;5073246;28;20051;-78
2022/01/17 04:35:56;;;;;;;35.75;9.68;;;;;;;2.54;100.00;103172.34;5075104;28;20115;-78
2022/01/17 04:38:21;;;;;;;33.38;9.15;;;;;;;2.52;100.00;103168.84;5069973;28;20090;-78
2022/01/17 04:40:49;;;;;;;34.10;8.90;;;;;;;2.52;100.00;103173.97;5069562;28;20028;-79
2022/01/17 04:45:07;;;;;;;30.42;9.52;;;;;;;2.48;100.00;103174.59;5069436;28;20055;-79
2022/01/17 04:46:08;;;;;;;28.10;8.80;;;;;;;2.43;100.00;103160.72;5066426;28;20059;-79
2022/01/17 04:48:34;;;;;;;33.72;9.07;;;;;;;2.45;100.00;103169.38;5069635;28;20102;-79
2022/01/17 04:50:59;;;;;;;34.30;8.88;;;;;;;2.44;100.00;103173.59;5069280;28;20993;-79
2022/01/17 04:53:26;;;;;;;27.08;8.60;;;;;;;2.48;100.00;103178.06;5069999;28;20443;-79
2022/01/17 04:55:51;;;;;;;30.58;9.18;;;;;;;2.50;100.00;103189.25;5069465;28;20052;-79
2022/01/17 04:58:17;;;;;;;32.55;8.68;;;;;;;2.51;100.00;103188.44;5063420;28;20129;-79
2022/01/17 05:00:46;;;;;;;34.33;8.75;;;;;;;2.58;100.00;103194.72;5064281;28;20380;-79
2022/01/17 05:03:19;;;;;;;32.92;8.65;;;;;;;2.56;100.00;103191.22;5069211;28;20384;-79
2022/01/17 05:05:44;;;;;;;28.67;8.20;;;;;;;2.53;100.00;103204.72;5070086;28;20031;-79
2022/01/17 05:08:10;;;;;;;24.95;7.40;;;;;;;2.61;100.00;103217.88;5051453;28;20024;-79
2022/01/17 05:10:35;;;;;;;31.83;7.90;;;;;;;2.69;100.00;103214.00;5074428;28;20062;-79
2022/01/17 05:13:01;;;;;;;32.83;7.97;;;;;;;2.78;100.00;103212.78;5069533;28;20096;-79
2022/01/17 05:15:36;;;;;;;33.92;7.80;;;;;;;2.86;100.00;103212.25;5066677;28;20021;-79
2022/01/17 05:20:36;;;;;;;32.90;8.40;;;;;;;2.90;100.00;103214.13;5064010;28;20068;-79
2022/01/17 05:23:01;;;;;;;31.55;9.00;;;;;;;2.98;100.00;103211.13;5054384;28;20043;-79
2022/01/17 05:25:26;;;;;;;31.30;8.25;;;;;;;3.04;100.00;103206.25;5069239;28;20204;-79
2022/01/17 05:27:52;;;;;;;29.75;8.85;;;;;;;3.07;100.00;103205.53;5069869;28;20036;-79
2022/01/17 05:30:20;;;;;;;27.40;7.78;;;;;;;3.06;100.00;103207.22;5069235;28;20429;-79
2022/01/17 05:32:46;;;;;;;24.23;7.53;;;;;;;3.00;100.00;103209.47;5041995;28;20509;-79
2022/01/17 05:35:13;;;;;;;25.30;7.80;;;;;;;2.92;100.00;103215.09;5063710;28;20036;-79
2022/01/17 05:37:39;;;;;;;25.63;7.38;;;;;;;2.84;100.00;103214.72;5068254;28;20021;-79
2022/01/17 05:40:07;;;;;;;27.75;7.43;;;;;;;2.74;100.00;103217.66;5071965;28;20051;-79
2022/01/17 05:42:33;;;;;;;23.73;8.10;;;;;;;2.67;100.00;103223.28;5055277;28;20048;-79
2022/01/17 05:44:58;;;;;;;25.75;7.30;;;;;;;2.60;100.00;103219.56;5073489;28;20028;-79
2022/01/17 05:47:24;;;;;;;25.33;7.70;;;;;;;2.60;100.00;103223.81;5072856;28;20035;-79
2022/01/17 05:49:49;;;;;;;23.92;7.70;;;;;;;2.54;100.00;103226.09;5064244;28;20037;-79
2022/01/17 05:52:14;;;;;;;29.17;7.68;;;;;;;2.53;100.00;103216.66;5074250;28;20233;-79
2022/01/17 05:54:40;;;;;;;23.23;7.60;;;;;;;2.50;100.00;103196.94;5073114;28;20107;-79
2022/01/17 05:57:06;;;;;;;23.52;7.53;;;;;;;2.46;100.00;103206.97;5072765;28;20436;-79
2022/01/17 05:59:31;;;;;;;29.95;7.75;;;;;;;2.46;100.00;103212.91;5046338;28;20139;-79
2022/01/17 06:01:56;;;;;;;32.95;8.65;;;;;;;2.50;100.00;103221.63;5070143;28;20048;-79
2022/01/17 06:04:22;;;;;;;32.08;8.60;;;;;;;2.53;100.00;103216.66;5073852;28;20453;-79
2022/01/17 06:06:48;;;;;;;27.25;7.90;;;;;;;2.51;100.00;103220.84;5074688;28;20485;-79
2022/01/17 06:09:14;;;;;;;30.77;8.70;;;;;;;2.52;100.00;103213.25;5054208;28;20032;-79
2022/01/17 06:11:39;;;;;;;29.00;8.38;;;;;;;2.48;100.00;103208.75;5065389;28;20049;-79
2022/01/17 06:14:06;;;;;;;35.25;9.32;;;;;;;2.52;100.00;103227.72;5054428;28;20115;-79
2022/01/17 06:16:32;;;;;;;34.03;9.35;;;;;;;2.53;100.00;103240.56;5054188;28;20028;-79
2022/01/17 06:18:57;;;;;;;29.23;9.27;;;;;;;2.52;100.00;103227.72;5072175;28;20150;-79
2022/01/17 06:21:22;;;;;;;29.60;8.95;;;;;;;2.53;100.00;103216.66;5072374;28;20032;-79
2022/01/17 06:23:48;;;;;;;31.02;9.55;;;;;;;2.50;100.00;103214.84;5072360;28;20025;-79
2022/01/17 06:26:13;;;;;;;29.10;9.07;;;;;;;2.49;100.00;103215.63;5072143;28;20110;-79
2022/01/17 06:28:38;;;;;;;45.17;10.07;;;;;;;2.48;100.00;103229.25;5071730;28;20032;-79
2022/01/17 06:31:04;;;;;;;36.35;10.43;;;;;;;2.46;100.00;103241.06;5073168;28;20275;-79
2022/01/17 06:33:29;;;;;;;32.60;9.43;;;;;;;2.47;100.00;103247.97;5050015;28;20033;-79
2022/01/17 06:35:55;;;;;;;33.90;10.23;;;;;;;2.49;100.00;103248.03;5062720;28;20121;-79
2022/01/17 06:38:20;;;;;;;33.17;9.57;;;;;;;2.47;100.00;103240.28;5052058;28;20136;-79
2022/01/17 06:40:45;;;;;;;36.90;10.68;;;;;;;2.44;100.00;103236.72;5043201;28;20099;-79
2022/01/17 06:43:11;;;;;;;33.50;9.75;;;;;;;2.42;100.00;103239.19;5072164;28;20402;-79
2022/01/17 06:45:37;;;;;;;40.45;10.75;;;;;;;2.41;100.00;103246.78;5054322;28;20027;-79
2022/01/17 06:48:05;;;;;;;31.80;10.27;;;;;;;2.40;100.00;103238.22;5053206;28;20031;-79
2022/01/17 06:50:31;;;;;;;39.00;10.73;;;;;;;2.40;100.00;103238.22;5070998;28;20430;-79
2022/01/17 06:52:56;;;;;;;41.95;11.40;;;;;;;2.47;100.00;103242.84;5071197;28;20028;-79
2022/01/17 06:55:21;;;;;;;39.25;10.45;;;;;;;2.52;100.00;103249.06;5071716;28;20380;-78
2022/01/17 06:57:47;;;;;;;35.83;11.05;;;;;;;2.66;100.00;103265.09;5067819;28;20037;-78
2022/01/17 07:00:12;;;;;;;43.70;10.88;;;;;;;2.77;100.00;103269.03;5070047;28;20029;-78
2022/01/17 07:02:38;;;;;;;40.40;11.75;;;;;;;2.81;100.00;103263.22;5070083;28;20398;-78
2022/01/17 07:05:04;;;;;;;44.53;12.52;;;;;;;2.83;100.00;103266.75;5071993;28;20055;-77
2022/01/17 07:07:30;;;;;;;45.85;12.35;;;;;;;2.78;100.00;103266.53;5072475;28;20036;-77
2022/01/17 07:09:55;;;;;;;53.42;11.85;;;;;;;2.74;100.00;103290.22;5049927;28;20048;-78
2022/01/17 07:12:20;;;;;;;36.10;11.52;;;;;;;2.73;100.00;103282.47;5072400;28;20028;-78
2022/01/17 07:14:46;;;;;;;46.80;11.95;;;;;;;2.70;100.00;103260.19;5071434;28;20031;-78
2022/01/17 07:17:12;;;;;;;36.92;12.73;;;;;;;2.67;100.00;103257.47;5071439;28;20034;-78
2022/01/17 07:19:38;;;;;;;42.55;12.60;;;;;;;2.65;100.00;103242.84;5070161;28;20020;-77
2022/01/17 07:22:04;;;;;;;43.08;12.00;;;;;;;2.63;100.00;103253.00;5071228;28;20521;-77
2022/01/17 07:24:30;;;;;;;47.65;12.75;;;;;;;2.61;100.00;103239.25;5052197;28;20737;-77
2022/01/17 07:26:55;;;;;;;36.72;12.57;;;;;;;2.61;100.00;103246.94;5067962;28;20410;-82
2022/01/17 07:29:21;;;;;;;43.47;13.25;;;;;;;2.66;100.00;103254.84;5058355;28;20072;-83
2022/01/17 07:31:47;;;;;;;44.92;13.60;;;;;;;2.67;100.00;103257.47;5068287;28;20024;-83
2022/01/17 07:34:12;;;;;;;50.20;14.10;;;;;;;2.70;100.00;103267.88;5071538;28;20364;-82
2022/01/17 07:36:38;;;;;;;49.60;13.60;;;;;;;2.76;100.00;103270.72;5070209;28;20077;-82
2022/01/17 07:39:03;;;;;;;53.72;14.30;;;;;;;2.77;100.00;103277.59;5072507;28;20372;-82
2022/01/17 07:41:28;;;;;;;47.15;13.73;;;;;;;2.74;100.00;103274.88;5070898;28;20081;-83
2022/01/17 07:43:54;;;;;;;54.58;15.15;;;;;;;2.81;100.00;103287.97;5052983;28;20040;-83
2022/01/17 07:46:35;;;;;;;50.70;13.95;;;;;;;2.81;100.00;103295.63;5069474;28;20108;-83
2022/01/17 07:49:10;;;;;;;45.33;14.80;;;;;;;2.84;100.00;103293.25;5070238;28;20044;-82
2022/01/17 07:51:41;;;;;;;55.67;16.10;;;;;;;2.90;100.00;103294.41;5052379;28;20059;-83
2022/01/17 07:54:10;;;;;;;54.92;15.40;;;;;;;2.89;100.00;103297.78;5039267;28;20029;-83
2022/01/17 07:56:35;;;;;;;54.15;16.67;;;;;;;2.89;100.00;103290.09;5051913;28;20541;-83
2022/01/17 07:59:01;;;;;;;53.55;15.50;;;;;;;2.97;100.00;103299.00;5051791;28;20123;-83
2022/01/17 08:01:26;;;;;;;53.95;15.63;;;;;;;2.97;100.00;103301.56;5067445;28;20027;-83
2022/01/17 08:03:52;;;;;;;55.50;15.63;;;;;;;2.99;100.00;103299.97;5069885;28;20036;-83
2022/01/17 08:06:17;;;;;;;52.97;15.87;;;;;;;3.01;100.00;103295.78;5066911;28;20104;-83
2022/01/17 08:08:42;;;;;;;57.65;16.40;;;;;;;3.01;100.00;103303.47;5066447;28;20832;-83
2022/01/17 08:11:08;;;;;;;57.03;15.73;;;;;;;3.05;100.00;103309.63;5061949;28;20479;-83
2022/01/17 08:13:33;;;;;;;58.58;16.63;;;;;;;3.10;100.00;103301.34;5063149;28;20032;-83
2022/01/17 08:15:58;;;;;;;61.72;17.13;;;;;;;3.18;100.00;103312.81;5068630;28;20414;-83
2022/01/17 08:18:24;;;;;;;52.10;15.07;;;;;;;3.27;100.00;103309.81;5078820;28;20073;-83
2022/01/17 08:20:49;;;;;;;54.70;17.25;;;;;;;3.31;100.00;103308.25;5055477;28;20090;-87
2022/01/17 08:23:14;;;;;;;58.08;17.25;;;;;;;3.40;100.00;103324.06;5069391;28;20024;-85
2022/01/17 08:25:40;;;;;;;56.03;17.92;;;;;;;3.42;100.00;103324.97;5063965;28;20053;-87
2022/01/17 08:28:05;;;;;;;61.15;17.55;;;;;;;3.49;100.00;103320.22;5069699;28;20093;-82
2022/01/17 08:30:32;;;;;;;62.28;17.92;;;;;;;3.55;100.00;103314.47;5050576;28;20051;-82
2022/01/17 08:32:58;;;;;;;61.28;17.60;;;;;;;3.63;100.00;103328.50;5076888;28;20550;-79
2022/01/17 08:35:23;;;;;;;57.60;17.65;;;;;;;3.68;100.00;103337.31;5075835;28;20047;-80
2022/01/17 08:37:49;;;;;;;65.50;19.38;;;;;;;3.74;100.00;103324.75;5069917;28;20024;-82
2022/01/17 08:40:16;;;;;;;60.67;18.33;;;;;;;3.80;100.00;103317.34;5069968;28;20033;-80
2022/01/17 08:42:42;;;;;;;59.95;17.20;;;;;;;3.86;100.00;103303.88;5051175;28;20049;-76
2022/01/17 08:45:12;;;;;;;57.60;18.13;;;;;;;3.90;100.00;103318.59;5067393;28;20168;-76
2022/01/17 08:47:37;;;;;;;59.40;18.05;;;;;;;3.92;100.00;103316.97;5070123;28;20028;-76
2022/01/17 08:50:05;;;;;;;58.97;18.58;;;;;;;3.98;100.00;103307.84;5075477;28;20024;-76
2022/01/17 08:52:30;;;;;;;64.55;18.63;;;;;;;4.01;100.00;103314.81;5050770;28;20039;-76
2022/01/17 08:54:56;;;;;;;73.57;19.92;;;;;;;4.08;100.00;103316.84;5049654;28;20055;-76
2022/01/17 08:57:21;;;;;;;68.72;19.17;;;;;;;4.15;100.00;103323.09;5063940;28;20395;-76
2022/01/17 08:59:46;;;;;;;62.90;18.48;;;;;;;4.20;100.00;103324.16;5048488;28;20028;-76
2022/01/17 09:02:12;;;;;;;60.67;18.40;;;;;;;4.27;100.00;103327.06;5049203;28;20500;-81
2022/01/17 09:04:41;;;;;;;66.25;17.40;;;;;;;4.33;100.00;103321.28;5069812;28;20036;-80
2022/01/17 09:07:12;;;;;;;60.28;16.30;;;;;;;4.38;100.00;103320.66;5068556;28;20024;-79
2022/01/17 09:09:38;;;;;;;54.90;15.25;;;;;;;4.47;100.00;103327.88;5069191;28;20566;-78
2022/01/17 09:12:06;;;;;;;64.13;16.23;;;;;;;4.55;100.00;103318.81;5069104;28;20024;-79
2022/01/17 09:14:31;;;;;;;55.75;16.10;;;;;;;4.62;100.00;103325.06;5068221;28;20120;-80
2022/01/17 09:16:57;;;;;;;57.78;16.85;;;;;;;4.75;100.00;103335.91;5050461;28;20028;-78
2022/01/17 09:19:22;;;;;;;64.95;15.65;;;;;;;4.90;100.00;103352.75;5069200;28;20039;-79
2022/01/17 09:21:47;;;;;;;53.70;14.65;;;;;;;5.07;100.00;103362.88;5050931;28;20437;-81
2022/01/17 09:24:13;;;;;;;57.83;15.23;;;;;;;5.25;100.00;103361.84;5060481;28;20114;-81
2022/01/17 09:26:38;;;;;;;59.05;15.98;;;;;;;5.35;100.00;103362.25;5068424;28;20050;-83
2022/01/17 09:29:04;;;;;;;55.35;15.05;;;;;;;5.41;100.00;103365.03;5075867;28;20036;-82
2022/01/17 09:31:29;;;;;;;51.85;15.68;;;;;;;5.41;100.00;103354.75;5068742;28;20104;-81
2022/01/17 09:33:55;;;;;;;55.30;15.00;;;;;;;5.44;100.00;103362.59;5069056;28;20072;-81
2022/01/17 09:36:21;;;;;;;59.60;15.55;;;;;;;5.44;100.00;103354.88;5068252;28;20345;-81
2022/01/17 09:38:46;;;;;;;54.13;14.65;;;;;;;5.45;100.00;103348.03;5075681;28;20502;-81
2022/01/17 09:41:11;;;;;;;53.65;14.63;;;;;;;5.46;100.00;103347.19;5050353;28;20498;-82
2022/01/17 09:43:38;;;;;;;52.28;14.80;;;;;;;5.53;100.00;103365.50;5068373;28;20041;-82
2022/01/17 09:46:05;;;;;;;50.38;14.10;;;;;;;5.54;100.00;103374.09;5068593;28;20028;-83
2022/01/17 09:48:36;;;;;;;50.40;13.82;;;;;;;5.54;100.00;103380.13;5068533;28;20103;-82
2022/01/17 09:51:15;;;;;;;49.22;13.93;;;;;;;5.54;100.00;103389.53;5065370;28;20031;-83
2022/01/17 09:53:42;;;;;;;59.63;13.98;;;;;;;5.56;100.00;103382.75;5064750;28;20043;-82
2022/01/17 09:56:08;;;;;;;49.35;14.48;;;;;;;5.59;100.00;103397.44;5069980;28;20158;-86
2022/01/17 09:58:38;;;;;;;50.50;13.95;;;;;;;5.57;100.00;103398.25;5068902;28;20031;-86
2022/01/17 10:01:04;;;;;;;41.92;12.23;;;;;;;5.59;100.00;103405.16;5075459;28;20032;-85
2022/01/17 10:03:30;;;;;;;46.97;13.52;;;;;;;5.59;100.00;103411.19;5050636;28;20112;-88
2022/01/17 10:05:56;;;;;;;42.90;11.95;;;;;;;5.59;100.00;103395.75;5065903;28;20039;-88
2022/01/17 10:08:22;;;;;;;44.75;12.27;;;;;;;5.61;100.00;103422.38;5068625;28;20409;-87
2022/01/17 10:11:00;;;;;;;41.72;11.60;;;;;;;5.61;100.00;103409.53;5067548;28;20138;-85
2022/01/17 10:13:29;;;;;;;40.67;11.85;;;;;;;5.64;100.00;103393.34;5048645;28;20390;-85
2022/01/17 10:16:10;;;;;;;32.97;9.57;;;;;;;5.68;100.00;103405.47;5066545;28;20187;-85
2022/01/17 10:18:46;;;;;;;35.40;10.98;;;;;;;5.67;100.00;103403.72;5049086;28;20033;-86
2022/01/17 10:21:27;;;;;;;35.78;10.43;;;;;;;5.71;100.00;103401.34;5066147;28;20507;-86
2022/01/17 10:35:21;;;;;;;37.83;10.30;;;;;;;5.98;100.00;103414.38;5047608;28;20042;-86
2022/01/17 10:38:08;;;;;;;38.92;9.95;;;;;;;6.06;100.00;103420.69;5067631;28;20029;-86
2022/01/17 10:40:44;;;;;;;39.83;9.88;;;;;;;6.11;100.00;103420.84;5070210;28;20032;-87
2022/01/17 10:43:25;;;;;;;37.30;9.63;;;;;;;6.19;100.00;103422.00;5056247;28;20203;-87
2022/01/17 10:45:52;;;;;;;30.48;8.55;;;;;;;6.26;100.00;103421.41;5049653;28;20029;-86
2022/01/17 10:48:18;;;;;;;31.95;7.53;;;;;;;6.25;100.00;103420.53;5033120;28;20120;-87
2022/01/17 10:50:50;;;;;;;31.45;7.20;;;;;;;6.29;99.98;103427.53;5032588;28;20108;-86
2022/01/17 10:53:17;;;;;;;42.25;8.68;;;;;;;6.31;99.69;103407.84;5048883;28;20043;-88
2022/01/17 10:55:48;;;;;;;31.45;8.85;;;;;;;6.36;99.83;103420.88;5056879;28;20460;-87
2022/01/17 10:58:20;;;;;;;29.25;7.82;;;;;;;6.44;99.05;103429.75;5050332;28;20390;-87
2022/01/17 11:00:48;;;;;;;32.15;9.25;;;;;;;6.44;99.20;103434.03;5053946;28;20035;-88
2022/01/17 11:03:17;;;;;;;36.10;8.13;;;;;;;6.46;98.38;103446.16;5049879;28;20029;-87
2022/01/17 11:05:45;;;;;;;34.17;8.23;;;;;;;6.53;98.62;103439.50;5051445;28;20111;-87
2022/01/17 11:08:12;;;;;;;30.85;9.88;;;;;;;6.57;98.82;103449.97;5051768;28;20052;-87
2022/01/17 11:10:41;;;;;;;31.25;7.30;;;;;;;6.56;97.98;103444.75;5051319;28;20020;-86
2022/01/17 11:13:10;;;;;;;32.95;7.57;;;;;;;6.63;98.54;103465.63;5057079;28;20119;-86
2022/01/17 11:15:37;;;;;;;29.48;7.63;;;;;;;6.64;97.75;103457.09;5024102;28;20025;-87
2022/01/17 11:18:20;;;;;;;26.88;7.00;;;;;;;6.66;98.28;103455.44;5042525;28;20087;-88
2022/01/17 11:20:47;;;;;;;29.25;6.43;;;;;;;6.66;97.62;103447.72;5042270;28;20025;-86
2022/01/17 11:23:13;;;;;;;33.28;6.90;;;;;;;6.71;98.82;103446.16;5050666;28;20025;-86
2022/01/17 11:25:43;;;;;;;32.42;7.20;;;;;;;6.77;97.53;103440.34;5027399;28;20388;-87
2022/01/17 11:28:09;;;;;;;36.25;7.30;;;;;;;6.77;97.37;103439.47;5049245;28;20035;-87
2022/01/17 11:30:38;;;;;;;26.77;6.80;;;;;;;6.79;97.17;103437.81;5051112;28;20488;-86
2022/01/17 11:33:07;;;;;;;28.90;5.90;;;;;;;6.78;96.84;103434.38;5031961;28;20020;-87
2022/01/17 11:35:34;;;;;;;31.17;6.47;;;;;;;6.80;96.69;103430.16;5048330;28;20534;-87
2022/01/17 11:38:01;;;;;;;34.53;6.78;;;;;;;6.80;97.27;103419.84;5049347;28;20035;-85
2022/01/17 11:40:33;;;;;;;31.85;7.10;;;;;;;6.84;97.59;103421.66;5048948;28;20120;-85